Gage, Oklahoma
Current Conditions -  °F | °C
As of 3:53 AM on Sunday 23 Nov 2014 (Local Time) from KGAG Reporting Station
Clear Clear  
Wind Chill: 41°   Ceiling: Unl
Heat Index: 47°   Visibility: 9mi
Dew Point: 46°   Wind: 14mph
Humidity: 97%   Direction: 180°S
Pressure: 29.41"   Gusts: NA
Location:  36.32°N, 99.76°W
Report Text: KGAG 230953Z AUTO 18012KT 9SM CLR 08/08 A2941 RMK AO2 SLP949 T00830078
Loading
Personal Weather Stations






























Interactive Weather Map New forecast layout! Learn more

10-Day Weather Forecast

Advertisements
Track Severe Weather on mobile